Terminal Aerodrome Forecast
Issued by NWS

Home | Current Version | Previous Version | Text Only | Print | Product List | Glossary Off
Versions: 1 2 3 4 5 6 7 8 9 10 11 12 13 14 15

000
FTUS43 KGRB 290520
TAFATW
TAF
KATW 290520Z 2906/3006 17008KT P6SM SCT080 BKN150
     FM290900 20008KT P6SM SCT035 BKN070
     FM291400 22009KT P6SM -SHRA OVC030
     FM291900 25012KT P6SM VCSH BKN035
     FM300000 27009KT P6SM SCT050
     FM300200 26007KT P6SM SCT200=

USA.gov is the U.S. government's official web portal to all federal, state and local government web resources and services.